Time,TemperatureF,DewpointF,PressureIn,WindDirection,WindDirectionDegrees,WindSpeedMPH,WindSpeedGustMPH,Humidity,HourlyPrecipIn,Conditions,Clouds,dailyrainin,SoftwareType,DateUTC
2013-01-30 00:02:00,46.2,42.3,30.42,SW,235,1.0,9.0,86,0.00,RA,FEW,0.00,WeatherDisplay:10.37,2013-01-30 08:02:00,
2013-01-30 00:17:00,46.2,42.3,30.42,SSW,206,2.0,11.0,86,0.00,OVC,FEW,0.00,WeatherDisplay:10.37,2013-01-30 08:17:00,
2013-01-30 00:32:00,46.6,42.6,30.42,SW,222,1.0,11.0,86,0.02,RA,FEW,0.02,WeatherDisplay:10.37,2013-01-30 08:32:00,
2013-01-30 00:47:00,46.6,42.7,30.42,SSW,202,2.0,7.0,86,0.00,OVC,FEW,0.02,WeatherDisplay:10.37,2013-01-30 08:47:00,
2013-01-30 01:02:00,46.9,43.0,30.42,SW,217,3.0,7.0,86,0.00,-RA,FEW,0.02,WeatherDisplay:10.37,2013-01-30 09:02:00,
2013-01-30 01:17:00,47.1,43.1,30.41,SSW,212,2.0,7.0,86,0.00,-RA,FEW,0.02,WeatherDisplay:10.37,2013-01-30 09:17:00,
2013-01-30 01:32:00,47.1,43.1,30.41,SW,220,1.0,8.0,86,0.00,-RA,FEW,0.02,WeatherDisplay:10.37,2013-01-30 09:32:00,
2013-01-30 01:47:00,47.3,43.3,30.42,SW,226,2.0,7.0,86,0.02,-RA,FEW,0.04,WeatherDisplay:10.37,2013-01-30 09:47:00,
2013-01-30 02:02:00,47.3,43.3,30.41,SSW,211,0.0,8.0,86,0.00,-RA,FEW,0.04,WeatherDisplay:10.37,2013-01-30 10:02:00,
2013-01-30 02:17:00,47.4,43.4,30.42,SW,223,0.0,6.0,86,0.00,-RA,FEW,0.04,WeatherDisplay:10.37,2013-01-30 10:17:00,
2013-01-30 02:32:00,47.5,43.5,30.43,SSW,210,2.0,6.0,86,0.04,-RA,FEW,0.09,WeatherDisplay:10.37,2013-01-30 10:32:00,
2013-01-30 02:47:00,47.5,43.5,30.43,SSW,211,2.0,4.0,86,0.00,-RA,FEW,0.09,WeatherDisplay:10.37,2013-01-30 10:47:00,
2013-01-30 03:02:00,47.7,43.7,30.42,SW,221,1.0,7.0,86,0.00,-RA,FEW,0.09,WeatherDisplay:10.37,2013-01-30 11:02:00,
2013-01-30 03:17:00,47.7,43.7,30.42,SW,222,1.0,4.0,86,0.02,-RA,FEW,0.11,WeatherDisplay:10.37,2013-01-30 11:17:00,
2013-01-30 03:32:00,47.7,43.7,30.42,SSW,208,0.0,7.0,86,0.02,-RA,FEW,0.13,WeatherDisplay:10.37,2013-01-30 11:32:00,
2013-01-30 03:47:00,47.8,44.1,30.42,SW,220,1.0,5.0,87,0.00,-RA,FEW,0.13,WeatherDisplay:10.37,2013-01-30 11:47:00,
2013-01-30 04:02:00,47.8,44.2,30.42,SW,214,1.0,5.0,87,0.02,-RA,FEW,0.16,WeatherDisplay:10.37,2013-01-30 12:02:00,
2013-01-30 04:17:00,47.8,44.2,30.42,SW,219,2.0,6.0,87,0.02,-RA,FEW,0.18,WeatherDisplay:10.37,2013-01-30 12:17:00,
2013-01-30 04:32:00,47.8,44.2,30.42,SW,229,1.0,5.0,87,0.00,-RA,FEW,0.18,WeatherDisplay:10.37,2013-01-30 12:32:00,
2013-01-30 04:47:00,47.8,44.1,30.42,SW,232,0.0,2.0,87,0.02,-RA,FEW,0.20,WeatherDisplay:10.37,2013-01-30 12:47:00,
2013-01-30 05:02:00,47.7,44.0,30.42,SW,227,0.0,4.0,87,0.02,-RA,FEW,0.22,WeatherDisplay:10.37,2013-01-30 13:02:00,
2013-01-30 05:17:00,47.7,44.0,30.42,SW,214,1.0,4.0,87,0.02,-RA,FEW,0.24,WeatherDisplay:10.37,2013-01-30 13:17:00,
2013-01-30 05:32:00,47.8,44.1,30.42,SW,233,0.0,5.0,87,0.02,-RA,FEW,0.27,WeatherDisplay:10.37,2013-01-30 13:32:00,
2013-01-30 05:47:00,47.7,44.0,30.42,SW,229,0.0,5.0,87,0.00,-RA,FEW,0.27,WeatherDisplay:10.37,2013-01-30 13:47:00,
2013-01-30 06:02:00,47.7,44.0,30.42,SW,228,0.0,6.0,87,0.02,-RA,FEW,0.29,WeatherDisplay:10.37,2013-01-30 14:02:00,
2013-01-30 06:17:00,47.8,44.1,30.42,WSW,241,0.0,3.0,87,0.00,-RA,FEW,0.29,WeatherDisplay:10.37,2013-01-30 14:17:00,
2013-01-30 06:32:00,47.7,44.0,30.42,SW,220,0.0,4.0,87,0.02,-RA,FEW,0.31,WeatherDisplay:10.37,2013-01-30 14:32:00,
2013-01-30 06:47:00,47.7,44.0,30.42,SW,220,1.0,4.0,87,0.00,-RA,FEW,0.31,WeatherDisplay:10.37,2013-01-30 14:47:00,
2013-01-30 07:02:00,47.7,44.0,30.42,SW,219,1.0,4.0,87,0.00,-RA,FEW,0.31,WeatherDisplay:10.37,2013-01-30 15:02:00,
2013-01-30 07:17:00,47.7,44.0,30.42,SW,229,0.0,4.0,87,0.02,-RA,FEW,0.33,WeatherDisplay:10.37,2013-01-30 15:17:00,
2013-01-30 07:32:00,47.7,44.0,30.42,WSW,239,0.0,5.0,87,0.00,-RA,FEW,0.33,WeatherDisplay:10.37,2013-01-30 15:32:00,
2013-01-30 07:47:00,47.7,44.0,30.42,SW,234,1.0,3.0,87,0.02,-RA,FEW,0.35,WeatherDisplay:10.37,2013-01-30 15:47:00,
2013-01-30 08:02:00,47.8,44.2,30.43,WSW,238,0.0,6.0,87,0.02,-RA,FEW,0.38,WeatherDisplay:10.37,2013-01-30 16:02:00,
2013-01-30 08:17:00,47.8,44.2,30.43,SW,232,0.0,4.0,87,0.02,-RA,FEW,0.40,WeatherDisplay:10.37,2013-01-30 16:17:00,
2013-01-30 08:32:00,48.0,44.3,30.43,SW,223,1.0,3.0,87,0.02,-RA,FEW,0.42,WeatherDisplay:10.37,2013-01-30 16:32:00,
2013-01-30 08:47:00,48.0,44.3,30.43,SW,235,0.0,5.0,87,0.02,-RA,FEW,0.44,WeatherDisplay:10.37,2013-01-30 16:47:00,
2013-01-30 09:02:00,48.2,44.5,30.43,SW,225,1.0,7.0,87,0.02,-RA,FEW,0.47,WeatherDisplay:10.37,2013-01-30 17:02:00,
2013-01-30 09:17:00,48.4,44.7,30.43,SW,232,2.0,5.0,87,0.00,-RA,FEW,0.47,WeatherDisplay:10.37,2013-01-30 17:17:00,
2013-01-30 09:32:00,48.6,44.9,30.43,SW,226,1.0,7.0,87,0.02,-RA,FEW,0.49,WeatherDisplay:10.37,2013-01-30 17:32:00,
2013-01-30 09:47:00,48.7,45.0,30.43,SW,214,1.0,5.0,87,0.02,-RA,FEW,0.51,WeatherDisplay:10.37,2013-01-30 17:47:00,
2013-01-30 10:02:00,48.9,45.2,30.44,WSW,241,1.0,5.0,87,0.00,OVC,FEW,0.51,WeatherDisplay:10.37,2013-01-30 18:02:00,
2013-01-30 10:17:00,49.1,45.4,30.44,SW,228,0.0,6.0,87,0.02,OVC,FEW,0.53,WeatherDisplay:10.37,2013-01-30 18:17:00,
2013-01-30 10:32:00,49.3,45.6,30.44,SW,230,1.0,6.0,87,0.02,RA,FEW,0.55,WeatherDisplay:10.37,2013-01-30 18:32:00,
2013-01-30 10:47:00,49.3,45.6,30.44,SW,227,3.0,7.0,87,0.00,OVC,FEW,0.55,WeatherDisplay:10.37,2013-01-30 18:47:00,
2013-01-30 11:02:00,49.6,45.9,30.44,SW,224,2.0,8.0,87,0.00,-RA,FEW,0.55,WeatherDisplay:10.37,2013-01-30 19:02:00,
2013-01-30 11:17:00,49.8,46.1,30.44,WSW,237,1.0,5.0,87,0.00,-RA,FEW,0.55,WeatherDisplay:10.37,2013-01-30 19:17:00,
2013-01-30 11:32:00,49.8,46.1,30.44,SW,222,1.0,7.0,87,0.00,-RA,FEW,0.55,WeatherDisplay:10.37,2013-01-30 19:32:00,
2013-01-30 11:47:00,49.8,46.1,30.44,SW,222,2.0,9.0,87,0.02,-RA,FEW,0.58,WeatherDisplay:10.37,2013-01-30 19:47:00,
2013-01-30 12:02:00,49.8,46.1,30.44,SW,227,0.0,9.0,87,0.00,-RA,FEW,0.58,WeatherDisplay:10.37,2013-01-30 20:02:00,
2013-01-30 12:17:00,49.8,46.1,30.44,SW,217,0.0,5.0,87,0.00,-RA,FEW,0.58,WeatherDisplay:10.37,2013-01-30 20:17:00,
2013-01-30 12:32:00,49.8,46.1,30.44,SW,230,2.0,6.0,87,0.02,-RA,FEW,0.60,WeatherDisplay:10.37,2013-01-30 20:32:00,
2013-01-30 12:47:00,49.8,46.1,30.43,SSW,207,1.0,6.0,87,0.00,-RA,FEW,0.60,WeatherDisplay:10.37,2013-01-30 20:47:00,
2013-01-30 13:02:00,49.8,46.1,30.43,SW,215,2.0,5.0,87,0.00,-RA,FEW,0.60,WeatherDisplay:10.37,2013-01-30 21:02:00,
2013-01-30 13:17:00,50.2,46.5,30.43,WSW,250,1.0,6.0,87,0.00,-RA,FEW,0.60,WeatherDisplay:10.37,2013-01-30 21:17:00,
2013-01-30 13:32:00,49.8,46.1,30.43,WSW,245,2.0,11.0,87,0.02,-RA,FEW,0.62,WeatherDisplay:10.37,2013-01-30 21:32:00,
2013-01-30 13:47:00,49.8,46.1,30.43,SSW,204,2.0,6.0,87,0.00,-RA,FEW,0.62,WeatherDisplay:10.37,2013-01-30 21:47:00,
2013-01-30 14:02:00,49.6,45.9,30.43,WSW,247,0.0,5.0,87,0.02,-RA,FEW,0.64,WeatherDisplay:10.37,2013-01-30 22:02:00,
2013-01-30 14:17:00,49.6,45.9,30.42,SW,229,2.0,8.0,87,0.00,-RA,FEW,0.64,WeatherDisplay:10.37,2013-01-30 22:17:00,
2013-01-30 14:32:00,49.6,45.9,30.42,SW,226,2.0,7.0,87,0.00,-RA,FEW,0.64,WeatherDisplay:10.37,2013-01-30 22:32:00,
2013-01-30 14:47:00,49.5,45.8,30.42,WSW,241,1.0,6.0,87,0.02,-RA,FEW,0.67,WeatherDisplay:10.37,2013-01-30 22:47:00,
2013-01-30 15:02:00,49.4,45.7,30.43,SW,217,0.0,4.0,87,0.02,-RA,FEW,0.69,WeatherDisplay:10.37,2013-01-30 23:02:00,
2013-01-30 15:17:00,49.3,45.6,30.42,SW,215,1.0,5.0,87,0.00,-RA,FEW,0.69,WeatherDisplay:10.37,2013-01-30 23:17:00,
2013-01-30 15:32:00,49.3,45.6,30.43,WSW,245,0.0,4.0,87,0.00,-RA,FEW,0.69,WeatherDisplay:10.37,2013-01-30 23:32:00,
2013-01-30 15:47:00,49.2,45.5,30.43,SW,236,1.0,6.0,87,0.00,-RA,FEW,0.69,WeatherDisplay:10.37,2013-01-30 23:47:00,
2013-01-30 16:02:00,49.1,45.4,30.42,SW,228,1.0,5.0,87,0.00,CLR,FEW,0.69,WeatherDisplay:10.37,2013-01-31 00:02:00,
2013-01-30 16:17:00,48.9,45.2,30.42,SW,231,1.0,7.0,87,0.00,CLR,FEW,0.69,WeatherDisplay:10.37,2013-01-31 00:17:00,
2013-01-30 16:32:00,48.7,45.0,30.42,SW,228,1.0,5.0,87,0.02,CLR,FEW,0.71,WeatherDisplay:10.37,2013-01-31 00:32:00,
2013-01-30 16:47:00,48.7,45.0,30.42,SSW,211,1.0,7.0,87,0.00,CLR,FEW,0.71,WeatherDisplay:10.37,2013-01-31 00:47:00,
2013-01-30 17:02:00,48.6,44.9,30.42,SW,223,1.0,5.0,87,0.00,-RA,FEW,0.71,WeatherDisplay:10.37,2013-01-31 01:02:00,
2013-01-30 17:17:00,48.4,44.7,30.42,WSW,246,1.0,14.0,87,0.00,-RA,FEW,0.71,WeatherDisplay:10.37,2013-01-31 01:17:00,
2013-01-30 17:32:00,48.2,44.5,30.42,SW,227,0.0,4.0,87,0.00,-RA,FEW,0.71,WeatherDisplay:10.37,2013-01-31 01:32:00,
2013-01-30 17:47:00,48.0,44.3,30.42,SW,215,1.0,6.0,87,0.02,-RA,FEW,0.73,WeatherDisplay:10.37,2013-01-31 01:47:00,
2013-01-30 18:02:00,48.0,44.3,30.42,SW,231,0.0,5.0,87,0.00,-RA,FEW,0.73,WeatherDisplay:10.37,2013-01-31 02:02:00,
2013-01-30 18:17:00,47.8,44.2,30.42,SSW,212,5.0,14.0,87,0.00,-RA,FEW,0.73,WeatherDisplay:10.37,2013-01-31 02:17:00,
2013-01-30 18:32:00,47.8,44.1,30.42,SW,221,0.0,6.0,87,0.00,-RA,FEW,0.73,WeatherDisplay:10.37,2013-01-31 02:32:00,
2013-01-30 18:47:00,47.7,43.7,30.43,SSW,213,1.0,14.0,86,0.00,-RA,FEW,0.73,WeatherDisplay:10.37,2013-01-31 02:47:00,
2013-01-30 19:02:00,47.5,43.5,30.42,SSW,202,0.0,5.0,86,0.00,-RA,FEW,0.73,WeatherDisplay:10.37,2013-01-31 03:02:00,
2013-01-30 19:17:00,47.5,43.5,30.42,SW,223,0.0,5.0,86,0.00,-RA,FEW,0.73,WeatherDisplay:10.37,2013-01-31 03:17:00,
2013-01-30 19:32:00,47.5,43.5,30.42,SW,231,0.0,4.0,86,0.02,-RA,FEW,0.75,WeatherDisplay:10.37,2013-01-31 03:32:00,
2013-01-30 19:47:00,47.5,43.5,30.42,SW,226,0.0,6.0,86,0.00,-RA,FEW,0.75,WeatherDisplay:10.37,2013-01-31 03:47:00,
2013-01-30 20:02:00,47.5,43.5,30.42,WSW,256,0.0,2.0,86,0.00,-RA,FEW,0.75,WeatherDisplay:10.37,2013-01-31 04:02:00,
2013-01-30 20:17:00,47.4,43.4,30.42,SW,216,1.0,3.0,86,0.00,-RA,FEW,0.75,WeatherDisplay:10.37,2013-01-31 04:17:00,
2013-01-30 20:32:00,47.4,43.4,30.42,SW,233,0.0,3.0,86,0.00,-RA,FEW,0.75,WeatherDisplay:10.37,2013-01-31 04:32:00,
2013-01-30 20:47:00,47.4,43.7,30.43,SW,231,1.0,4.0,87,0.00,-RA,FEW,0.75,WeatherDisplay:10.37,2013-01-31 04:47:00,
2013-01-30 21:17:00,47.5,43.8,30.43,SSW,207,0.0,3.0,87,0.02,RA,FEW,0.77,WeatherDisplay:10.37,2013-01-31 05:17:00,
2013-01-30 21:32:00,47.5,43.8,30.43,SSW,209,0.0,5.0,87,0.00,OVC,FEW,0.77,WeatherDisplay:10.37,2013-01-31 05:32:00,
2013-01-30 21:47:00,47.5,43.8,30.44,SW,225,2.0,6.0,87,0.00,OVC,FEW,0.77,WeatherDisplay:10.37,2013-01-31 05:47:00,
2013-01-30 22:02:00,47.5,43.8,30.43,SW,224,1.0,7.0,87,0.00,OVC,FEW,0.77,WeatherDisplay:10.37,2013-01-31 06:02:00,
2013-01-30 22:17:00,47.5,43.8,30.44,SW,236,1.0,6.0,87,0.00,OVC,FEW,0.77,WeatherDisplay:10.37,2013-01-31 06:17:00,
2013-01-30 22:32:00,47.5,43.8,30.44,SSW,210,1.0,4.0,87,0.00,OVC,FEW,0.77,WeatherDisplay:10.37,2013-01-31 06:32:00,
2013-01-30 22:47:00,47.5,43.8,30.44,SSW,209,1.0,9.0,87,0.00,OVC,FEW,0.77,WeatherDisplay:10.37,2013-01-31 06:47:00,
2013-01-30 23:02:00,47.5,43.8,30.44,SSW,213,0.0,7.0,87,0.00,OVC,FEW,0.77,WeatherDisplay:10.37,2013-01-31 07:02:00,
2013-01-30 23:17:00,47.5,43.8,30.45,SW,225,2.0,4.0,87,0.00,OVC,FEW,0.77,WeatherDisplay:10.37,2013-01-31 07:17:00,
2013-01-30 23:32:00,47.3,43.6,30.45,SW,230,0.0,4.0,87,0.00,OVC,FEW,0.77,WeatherDisplay:10.37,2013-01-31 07:32:00,
2013-01-30 23:47:00,46.9,43.3,30.44,SW,226,0.0,2.0,87,0.00,OVC,FEW,0.77,WeatherDisplay:10.37,2013-01-31 07:47:00,